createdAt,value
2023-08-07T00:03:45.110Z,75.16
2023-08-07T00:08:49.380Z,75.33
2023-08-07T00:13:50.589Z,74.99
2023-08-07T00:19:03.246Z,75.00
2023-08-07T00:24:09.060Z,75.12
2023-08-07T00:29:10.453Z,75.03
2023-08-07T00:34:12.462Z,75.39
2023-08-07T00:39:13.829Z,75.67
2023-08-07T00:44:15.075Z,76.26
2023-08-07T00:49:22.172Z,76.12
2023-08-07T00:54:25.676Z,76.13
2023-08-07T00:59:35.586Z,76.38
2023-08-07T01:04:36.929Z,75.68
2023-08-07T01:09:38.774Z,75.85
2023-08-07T01:15:24.615Z,76.96
2023-08-07T01:20:29.062Z,76.54
2023-08-07T01:25:33.992Z,75.70
2023-08-07T01:30:45.041Z,77.19
2023-08-07T01:35:56.078Z,75.35
2023-08-07T01:40:59.000Z,75.01
2023-08-07T01:46:00.317Z,76.64
2023-08-07T01:51:01.738Z,76.46
2023-08-07T01:56:07.379Z,76.08
2023-08-07T02:01:08.655Z,75.84
2023-08-07T02:06:11.976Z,75.06
2023-08-07T02:11:15.018Z,75.94
2023-08-07T02:16:16.294Z,77.22
2023-08-07T02:21:19.588Z,76.56
2023-08-07T02:26:20.902Z,75.65
2023-08-07T02:31:25.160Z,75.41
2023-08-07T02:36:35.430Z,75.18
2023-08-07T02:41:36.633Z,75.43
2023-08-07T02:46:37.854Z,75.43
2023-08-07T02:51:39.119Z,75.46
2023-08-07T02:56:41.557Z,74.84
2023-08-07T03:01:51.944Z,74.46
2023-08-07T03:06:56.112Z,75.02
2023-08-07T03:12:03.414Z,75.75
2023-08-07T03:17:05.823Z,74.32
2023-08-07T03:22:07.087Z,74.19
2023-08-07T03:27:08.428Z,74.12
2023-08-07T03:32:11.742Z,74.37
2023-08-07T03:37:15.686Z,74.89
2023-08-07T03:42:17.118Z,74.31
2023-08-07T03:47:21.240Z,74.13
2023-08-07T03:52:24.802Z,74.46
2023-08-07T03:57:27.455Z,74.14
2023-08-07T04:02:29.740Z,74.98
2023-08-07T04:07:32.891Z,74.04
2023-08-07T04:12:34.423Z,73.91
2023-08-07T04:17:36.921Z,74.28
2023-08-07T04:22:38.940Z,74.36
2023-08-07T04:27:41.865Z,74.03
2023-08-07T04:32:43.068Z,73.55
2023-08-07T04:37:45.551Z,73.45
2023-08-07T04:42:46.845Z,74.46
2023-08-07T04:47:48.282Z,73.87
2023-08-07T04:52:49.628Z,73.45
2023-08-07T04:57:54.572Z,73.44
2023-08-07T05:02:56.088Z,73.90
2023-08-07T05:07:59.580Z,74.20
2023-08-07T05:13:03.692Z,74.07
2023-08-07T05:18:04.924Z,73.86
2023-08-07T05:23:17.985Z,72.89
2023-08-07T05:28:19.289Z,73.13
2023-08-07T05:33:20.851Z,74.63
2023-08-07T05:38:22.352Z,72.86
2023-08-07T05:43:23.769Z,72.65
2023-08-07T05:48:25.475Z,73.13
2023-08-07T05:53:26.811Z,72.40
2023-08-07T05:58:28.246Z,71.75
2023-08-07T06:03:29.613Z,71.51
2023-08-07T06:08:30.966Z,71.32
2023-08-07T06:13:36.523Z,71.15
2023-08-07T06:18:38.647Z,70.78
2023-08-07T06:23:43.015Z,71.31
2023-08-07T06:30:02.439Z,70.16
2023-08-07T06:36:31.071Z,70.76
2023-08-07T06:41:32.524Z,70.35
2023-08-07T06:46:34.935Z,69.58
2023-08-07T06:51:38.534Z,69.28
2023-08-07T06:56:44.530Z,68.98
2023-08-07T07:14:42.028Z,69.23
2023-08-07T07:19:43.369Z,68.68
2023-08-07T07:24:44.645Z,68.38
2023-08-07T07:29:49.127Z,68.84
2023-08-07T07:36:02.102Z,68.34
2023-08-07T07:46:56.409Z,68.15
2023-08-07T07:51:57.942Z,66.28
2023-08-07T07:56:59.538Z,67.19
2023-08-07T08:02:07.268Z,66.60
2023-08-07T08:07:13.070Z,65.26
2023-08-07T08:12:20.234Z,65.40
2023-08-07T08:17:21.590Z,63.98
2023-08-07T08:22:27.374Z,63.72
2023-08-07T08:27:32.237Z,62.85
2023-08-07T08:32:33.988Z,62.74
2023-08-07T08:37:36.939Z,63.81
2023-08-07T08:44:15.124Z,63.72
2023-08-07T08:49:32.913Z,63.66
2023-08-07T08:54:35.579Z,66.60
2023-08-07T08:59:39.021Z,64.79
2023-08-07T09:04:42.547Z,64.21
2023-08-07T09:09:45.497Z,63.66
2023-08-07T09:14:55.947Z,64.68
2023-08-07T09:19:58.528Z,64.11
2023-08-07T09:25:00.575Z,63.78
2023-08-07T09:30:03.048Z,64.20
2023-08-07T09:35:27.494Z,64.74
2023-08-07T09:40:58.718Z,64.18
2023-08-07T09:46:20.116Z,64.15
2023-08-07T09:51:21.957Z,63.71
2023-08-07T09:56:25.682Z,63.15
2023-08-07T10:01:26.961Z,63.76
2023-08-07T10:06:28.600Z,63.31
2023-08-07T10:11:33.426Z,64.14
2023-08-07T10:16:41.658Z,63.69
2023-08-07T10:21:44.146Z,62.79
2023-08-07T10:26:56.916Z,62.12
2023-08-07T10:32:04.022Z,61.11
2023-08-07T10:37:10.419Z,60.66
2023-08-07T10:42:12.506Z,60.80
2023-08-07T10:47:13.731Z,61.36
2023-08-07T10:52:15.946Z,61.39
2023-08-07T10:57:26.235Z,62.31
2023-08-07T11:02:30.811Z,61.03
2023-08-07T11:07:32.390Z,60.12
2023-08-07T11:12:33.744Z,59.11
2023-08-07T11:17:35.084Z,59.19
2023-08-07T11:22:45.532Z,59.31
2023-08-07T11:27:47.080Z,57.94
2023-08-07T11:32:58.264Z,57.26
2023-08-07T11:38:08.527Z,56.59
2023-08-07T11:43:12.674Z,57.85
2023-08-07T11:48:13.953Z,57.57
2023-08-07T11:53:18.713Z,58.18
2023-08-07T11:58:21.118Z,56.93
2023-08-07T12:03:34.445Z,56.84
2023-08-07T12:08:42.851Z,57.13
2023-08-07T12:13:46.071Z,58.40
2023-08-07T12:18:50.137Z,59.45
2023-08-07T12:23:55.059Z,57.51
2023-08-07T12:28:56.427Z,57.00
2023-08-07T12:39:22.112Z,54.30
2023-08-07T12:44:27.297Z,54.01
2023-08-07T12:49:32.637Z,53.65
2023-08-07T12:54:35.283Z,53.13
2023-08-07T12:59:36.511Z,53.90
2023-08-07T13:04:37.852Z,53.20
2023-08-07T13:09:39.143Z,53.94
2023-08-07T13:14:40.320Z,52.49
2023-08-07T13:19:42.002Z,53.12
2023-08-07T13:24:43.728Z,53.93
2023-08-07T13:29:48.577Z,55.20
2023-08-07T13:34:51.463Z,56.56
2023-08-07T13:39:54.819Z,57.01
2023-08-07T13:44:56.575Z,57.73
2023-08-07T13:50:00.521Z,58.31
2023-08-07T13:55:01.860Z,58.36
2023-08-07T14:00:18.430Z,58.13
2023-08-07T14:05:24.223Z,58.89
2023-08-07T14:10:25.667Z,58.51
2023-08-07T14:15:27.591Z,58.72
2023-08-07T14:20:29.148Z,60.54
2023-08-07T14:25:33.074Z,62.50
2023-08-07T14:30:36.435Z,62.16
2023-08-07T14:35:39.846Z,60.46
2023-08-07T14:40:42.761Z,60.39
2023-08-07T14:45:45.624Z,60.90
2023-08-07T14:50:47.081Z,60.55
2023-08-07T14:55:48.355Z,59.07
2023-08-07T15:00:50.707Z,59.28
2023-08-07T15:05:59.644Z,58.68
2023-08-07T15:11:06.017Z,58.57
2023-08-07T15:16:13.516Z,58.67
2023-08-07T15:21:16.119Z,59.07
2023-08-07T15:26:17.527Z,59.75
2023-08-07T15:31:19.134Z,60.43
2023-08-07T15:36:25.218Z,61.04
2023-08-07T15:41:33.593Z,59.32
2023-08-07T15:46:35.495Z,59.79
2023-08-07T15:51:36.804Z,60.00
2023-08-07T15:56:38.044Z,60.13
2023-08-07T16:01:42.019Z,60.72
2023-08-07T16:06:46.940Z,60.95
2023-08-07T16:11:48.830Z,62.23
2023-08-07T16:16:52.520Z,63.51
2023-08-07T16:21:56.482Z,55.27
2023-08-07T16:26:58.095Z,58.07
2023-08-07T16:32:06.610Z,60.74
2023-08-07T16:37:07.948Z,58.72
2023-08-07T16:42:09.297Z,57.00
2023-08-07T16:47:10.612Z,58.89
2023-08-07T16:52:12.039Z,60.78
2023-08-07T16:57:14.501Z,62.40
2023-08-07T17:02:16.188Z,61.30
2023-08-07T17:07:17.581Z,57.41
2023-08-07T17:12:20.221Z,59.19
2023-08-07T17:17:24.651Z,61.06
2023-08-07T17:22:25.959Z,62.77
2023-08-07T17:27:30.377Z,65.61
2023-08-07T17:32:39.132Z,57.56
2023-08-07T17:37:40.393Z,58.90
2023-08-07T17:42:46.162Z,60.68
2023-08-07T17:47:47.864Z,61.87
2023-08-07T17:52:52.924Z,63.62
2023-08-07T17:57:54.726Z,60.12
2023-08-07T18:02:56.143Z,60.96
2023-08-07T18:07:57.733Z,63.89
2023-08-07T18:13:00.183Z,65.05
2023-08-07T18:18:01.471Z,57.51
2023-08-07T18:23:05.262Z,59.65
2023-08-07T18:28:09.586Z,62.82
2023-08-07T18:33:14.809Z,63.57
2023-08-07T18:38:16.908Z,58.54
2023-08-07T18:43:20.745Z,60.00
2023-08-07T18:48:24.164Z,63.08
2023-08-07T18:53:28.143Z,67.87
2023-08-07T18:59:09.349Z,57.78
2023-08-07T19:05:26.144Z,57.17
2023-08-07T19:10:29.406Z,59.76
2023-08-07T19:16:55.434Z,67.10
2023-08-07T19:35:29.177Z,61.54
2023-08-07T19:40:34.473Z,57.22
2023-08-07T19:45:37.212Z,59.91
2023-08-07T19:50:39.954Z,65.81
2023-08-07T19:55:45.039Z,58.56
2023-08-07T20:00:49.713Z,58.51
2023-08-07T20:06:00.264Z,63.95
2023-08-07T20:11:05.525Z,64.82
2023-08-07T20:16:08.237Z,56.96
2023-08-07T20:21:15.763Z,58.80
2023-08-07T20:26:22.084Z,65.74
2023-08-07T20:31:28.015Z,63.29
2023-08-07T20:36:33.400Z,60.64
2023-08-07T20:41:36.078Z,63.34
2023-08-07T20:46:38.873Z,64.04
2023-08-07T20:51:41.619Z,65.14
2023-08-07T20:56:45.538Z,65.73
2023-08-07T21:21:30.342Z,70.43
2023-08-07T21:26:34.891Z,69.78
2023-08-07T21:31:37.871Z,70.28
2023-08-07T21:36:40.552Z,69.68
2023-08-07T21:41:43.284Z,68.99
2023-08-07T21:46:46.081Z,69.19
2023-08-07T21:51:50.747Z,68.52
2023-08-07T21:56:53.522Z,69.02
2023-08-07T22:01:59.407Z,69.28
2023-08-07T22:07:02.621Z,69.44
2023-08-07T22:12:06.502Z,68.87
2023-08-07T22:17:09.139Z,68.33
2023-08-07T22:22:28.314Z,68.17
2023-08-07T22:27:33.874Z,68.12
2023-08-07T22:32:37.240Z,68.04
2023-08-07T22:37:40.292Z,67.81
2023-08-07T22:42:42.991Z,68.51
2023-08-07T22:47:48.592Z,67.44
2023-08-07T22:52:51.311Z,67.09
2023-08-07T22:57:54.012Z,66.96
2023-08-07T23:04:21.013Z,67.23
2023-08-07T23:09:50.032Z,67.31
2023-08-07T23:26:54.130Z,67.81
2023-08-07T23:32:21.895Z,67.90
2023-08-07T23:38:02.921Z,68.03
2023-08-07T23:43:19.536Z,66.15
2023-08-07T23:49:03.689Z,65.91
2023-08-07T23:55:09.584Z,65.65
